Parsons Landing, Santa Catalina Island Weather observations

Data are for 10 minute period ending at time listed.
 Day   Time   Solar   Ave.   Ave.  Ave.  Vector    Max.   Stn.   Total 
  of    of     Rad.   Air    Rel.  Wind   Wind     Wind   Baro. Precip. 
Year   Day            Temp.  Hum.  Speed  Dir.     Gust   Pres.         
2014   (PST)   W/m2    F      %     mph   deg.      mph    mb.    in.   
------------------------------------------------------------------------
 293    5:20    0.0    64   88.5     4    275.6     6.0    999.0   0.00  
 293    5:30    0.0    64   88.5     4    289.0     7.2    999.0   0.00  
 293    5:40    0.0    64   88.5     5    240.0     8.4    999.0   0.00  
 293    5:50    0.0    64   88.5     5    264.7     9.6    999.0   0.00  
 293    6:00    2.0    64   88.5     5    242.0     8.4    999.0   0.00  
 293    6:10    3.0    64   88.7     3    242.6     5.4    999.0   0.00  
 293    6:20    3.0    64   88.7     1    166.5     2.4    999.0   0.00  
 293    6:30    6.0    64   88.8     2    178.2     3.0    999.0   0.00  
 293    6:40   12.0    64   88.7     3    220.6     4.8    999.0   0.00  
 293    6:50   17.0    64   88.2     4    234.5     6.0    999.0   0.00  
 293    7:00   25.0    65   87.3     5    245.8     6.6    999.0   0.00  
 293    7:10   34.0    65   86.5     5    250.2     7.2    999.0   0.00  
 293    7:20   37.0    65   86.0     5    240.8     6.6    999.0   0.00  
 293    7:30   42.0    66   85.6     4    253.4     6.0    999.0   0.00  
 293    7:40   64.0    66   85.2     3    241.1     5.4    999.0   0.00  
 293    7:50   81.0    66   84.7     3    282.9     6.0    999.0   0.00  
 293    8:00   71.0    66   84.8     5    293.6     7.8    999.0   0.00  
 293    8:10   94.0    66   85.0     4    249.3     8.4    999.0   0.00  
 293    8:20  105.0    67   84.8     4    275.0     9.6    999.0   0.00  
 293    8:30  118.0    66   84.8     3    284.0     5.4    999.0   0.00  
 293    8:40  132.0    67   84.2     5    330.0     7.2    999.0   0.00  
 293    8:50  206.0    68   82.9     6    316.1     9.0    999.0   0.00  
 293    9:00  218.0    68   81.2     6    309.7     9.6    999.0   0.00  
 293    9:10  295.0    68   80.6     6    311.1     9.6    999.0   0.00  
 293    9:20  232.0    69   79.1     6    270.8     8.4    999.0   0.00  
 293    9:30  196.0    68   79.3     7    255.8    10.2    999.0   0.00  
 293    9:40  225.0    68   79.5     6    263.2     7.8    999.0   0.00  
 293    9:50  220.0    68   78.8     7    245.4    10.8    999.0   0.00  
 293   10:00  373.0    68   79.5     8    239.4    11.9    999.0   0.00  
 293   10:10  282.0    69   78.3     6    234.4     9.6    999.0   0.00  
 293   10:20  282.0    69   77.7     7    224.4    10.8    999.0   0.00  
 293   10:30  384.0    69   76.2     8    217.9    13.1    999.0   0.00  
 293   10:40  571.0    69   76.2    10    226.0    13.7    999.0   0.00  
 293   10:50  570.0    69   75.8    11    222.1    14.9    999.0   0.00  
 293   11:00  567.0    70   73.8     9    220.6    11.9    999.0   0.00  
 293   11:10  568.0    71   72.5     9    227.5    13.7    999.0   0.00  
 293   11:20  569.0    71   71.9     8    232.5    11.9    999.0   0.00  
 293   11:30  575.0    72   70.8     8    232.5    11.3    999.0   0.00  
 293   11:40  574.0    72   71.1     9    242.4    13.1    999.0   0.00  
 293   11:50  576.0    73   70.8     8      2.8    11.9    999.0   0.00  
 293   12:00  579.0    72   70.1     7    343.6    10.8    999.0   0.00  
 293   12:10  580.0    73   69.1     7    354.2    10.8    999.0   0.00  
 293   12:20  609.0    74   68.1     6    347.9    10.8    999.0   0.00  
 293   12:30  560.0    73   68.9     6     17.2    11.3    999.0   0.00  
 293   12:40  425.0    72   71.1     7    359.1    10.8    999.0   0.00  
 293   12:50  390.0    71   72.5     5    347.0     8.4    999.0   0.00  
 293   13:00  565.0    73   71.5     5    315.3     9.0    999.0   0.00  
 293   13:10  537.0    73   69.5     4     79.1     7.2    999.0   0.00  
 293   13:20  512.0    73   70.4     6     55.3     9.6    999.0   0.00  
 293   13:30  497.0    73   71.1     5     60.7     8.4    999.0   0.00  
 293   13:40  482.0    73   70.3     5     31.8     7.8    999.0   0.00  
 293   13:50  466.0    73   70.6     5    336.3     9.0    999.0   0.00  
 293   14:00  455.0    72   71.8     8    311.9    14.9    999.0   0.00  
 293   14:10  403.0    72   73.7     9    304.0    14.9    999.0   0.00  
 293   14:20  378.0    70   75.9     9    302.3    15.5    999.0   0.00  
 293   14:30  361.0    70   75.9    10    308.2    16.7    999.0   0.00  
 293   14:40  325.0    70   76.1    10    311.7    16.7    999.0   0.00  
 293   14:50  341.0    70   75.8    10    311.5    17.3    999.0   0.00  
 293   15:00  324.0    70   76.0    10    308.0    17.3    999.0   0.00  
 293   15:10  303.0    70   76.6    11    300.2    17.3    999.0   0.00  
 293   15:20  274.0    70   75.4     9    280.8    13.1    999.0   0.00  
 293   15:30  249.0    70   75.1     9    294.3    13.7    999.0   0.00  
 293   15:40  232.0    70   75.1     8    256.6    13.7    999.0   0.00  
 293   15:50  200.0    70   74.6     8    264.0    15.5    999.0   0.00  
 293   16:00   98.0    68   77.5    11    281.7    17.3    999.0   0.00  
 293   16:10   67.0    67   80.4    13    279.6    17.9    999.0   0.00  
 293   16:20   27.0    66   81.8     9    276.2    14.3    999.0   0.00  
 293   16:30   24.0    66   82.3     7    293.7    15.5    999.0   0.00  
 293   16:40   22.0    66   83.2     8    256.4    15.5    999.0   0.00  
 293   16:50   18.0    65   84.2     9    241.0    14.9    999.0   0.00  
 293   17:00   14.0    65   84.7     7    267.8    11.9    999.0   0.00  
 293   17:10    8.0    65   84.8     5    244.7    11.3    999.0   0.00  
 293   17:20    3.0    65   85.2     7    293.0    11.9    999.0   0.00  
 293   17:30    3.0    65   85.9     9    276.2    14.3    999.0   0.00  
 293   17:40    1.0    65   86.2     8    249.0    12.5    999.0   0.00  
 293   17:50    0.0    65   86.3     9    243.8    13.7    999.0   0.00  
 293   18:00    0.0    65   85.3    11    250.3    16.7    999.0   0.00  
 293   18:10    0.0    65   85.2     9    247.3    12.5    999.0   0.00  
 293   18:20    0.0    65   84.9     6    256.5    10.2    999.0   0.00  
 293   18:30    0.0    65   83.9     6    265.5    12.5    999.0   0.00  
 293   18:40    0.0    66   82.9    10    270.3    15.5    999.0   0.00  
 293   18:50    0.0    66   83.7     9    268.6    13.1    999.0   0.00  
 293   19:00    0.0    65   84.9     7    266.9    11.9    999.0   0.00  
 293   19:10    0.0    65   85.3     7    274.4    12.5    999.0   0.00  
 293   19:20    0.0    65   84.2     8    272.6    12.5    999.0   0.00  
 293   19:30    0.0    66   80.3     9    273.4    12.5    999.0   0.00  
 293   19:40    0.0    66   78.3     6    271.1    10.2    999.0   0.00  
 293   19:50    0.0    66   77.3     8    279.1    11.9    999.0   0.00  
 293   20:00    0.0    67   79.2     9    291.6    13.7    999.0   0.00  
 293   20:10    0.0    66   82.9     7    287.5    12.5    999.0   0.00  
 293   20:20    0.0    66   84.0     2    279.0     4.8    999.0   0.00  
 293   20:30    0.0    65   85.1     2      2.5     3.6    999.0   0.00  
 293   20:40    0.0    64   85.8     2    156.4     3.6    999.0   0.00  
 293   20:50    0.0    63   86.9     4    148.1     4.2    999.0   0.00  
 293   21:00    0.0    63   87.3     4    129.3     4.2    999.0   0.00  
 293   21:10    0.0    64   86.6     4    119.2     5.4    999.0   0.00  
 293   21:20    0.0    64   85.7     2    119.9     3.6    999.0   0.00  
 293   21:30    0.0    64   85.1     1     75.2     2.4    999.0   0.00  
 293   21:40    0.0    64   83.8     2    226.1     3.0    999.0   0.00  
 293   21:50    0.0    65   81.4     4    270.1     5.4    999.0   0.00  
 293   22:00    0.0    66   79.6     3    270.0     6.0    999.0   0.00  
 293   22:10    0.0    66   79.7     4    253.9     5.4    999.0   0.00  
 293   22:20    0.0    66   80.2     4    241.3     7.8    999.0   0.00  
 293   22:30    0.0    65   81.1     3    212.8     4.2    999.0   0.00  
 293   22:40    0.0    65   81.4     2    258.2     3.6    999.0   0.00  
 293   22:50    0.0    66   80.9     3    263.9     4.8    999.0   0.00  
 293   23:00    0.0    66   81.1     2    255.7     3.6    999.0   0.00  
 293   23:10    0.0    65   80.7     3    266.0     4.2    999.0   0.00  
 293   23:20    0.0    65   80.9     3    274.7     4.2    999.0   0.00  
 293   23:30    0.0    65   80.6     4    273.2     7.8    999.0   0.00  
 293   23:40    0.0    65   81.5     3    268.0     7.2    999.0   0.00  
 293   23:50    0.0    65   81.8     1    208.6     2.4    999.0   0.00  
 294    0:00    0.0    64   83.1     2    235.1     3.0    999.0   0.00  
 294    0:10    0.0    64   83.9     2    228.8     3.0    999.0   0.00  
 294    0:20    0.0    64   84.7     2    222.5     3.6    999.0   0.00  
 294    0:30    0.0    64   85.5     3    214.5     3.6    999.0   0.00  
 294    0:40    0.0    64   86.6     3    198.5     4.2    999.0   0.00  
 294    0:50    0.0    64   87.3     2    184.9     3.6    999.0   0.00  
 294    1:00    0.0    64   88.1     3    175.9     4.2    999.0   0.00  
 294    1:10    0.0    64   88.3     4    167.3     5.4    999.0   0.00  
 294    1:20    0.0    63   88.8     4    163.7     5.4    999.0   0.00  
 294    1:30    0.0    62   89.4     5    161.1     6.6    999.0   0.00  
 294    1:40    0.0    63   89.7     6    143.9     8.4    999.0   0.00  
 294    1:50    0.0    64   89.7     6    137.0     8.4    999.0   0.00  
 294    2:00    0.0    64   89.5     5    148.3     7.8    999.0   0.00  
 294    2:10    0.0    63   89.6     2    183.3     3.6    999.0   0.00  
 294    2:20    0.0    63   89.8     5    164.5     6.6    999.0   0.00  
 294    2:30    0.0    63   89.5     3    187.3     6.0    999.0   0.00  
 294    2:40    0.0    63   89.0     2    207.1     3.6    999.0   0.00  
 294    2:50    0.0    63   88.5     2    219.0     3.6    999.0   0.00  
 294    3:00    0.0    63   88.1     3    239.0     4.2    999.0   0.00  
 294    3:10    0.0    63   88.6     3    224.5     4.2    999.0   0.00  
 294    3:20    0.0    64   89.1     3    216.2     4.2    999.0   0.00  
 294    3:30    0.0    64   89.1     4    193.3     4.8    999.0   0.00  
 294    3:40    0.0    64   89.1     3    154.2     4.2    999.0   0.00  
 294    3:50    0.0    64   89.2     1    145.8     2.4    999.0   0.00  
 294    4:00    0.0    64   89.1     2    160.1     3.6    999.0   0.00  
 294    4:10    0.0    64   89.0     3    197.3     4.2    999.0   0.00  
 294    4:20    0.0    63   89.0     4    206.4     5.4    999.0   0.00  
 294    4:30    0.0    63   88.9     5    177.1     7.8    999.0   0.00  
 294    4:40    0.0    63   89.3     5    163.2     7.8    999.0   0.00  
 294    4:50    0.0    63   89.1     4    171.1     6.0    999.0   0.00  
 294    5:00    0.0    63   89.8     3    179.4     5.4    999.0   0.00  
 294    5:10    0.0    63   89.5     2    191.6     3.6    999.0   0.00  

Return to Parsons Landing graphs page.


Western Regional Climate Center,wrcc@dri.edu